sensor_id;sensor_type;location;lat;lon;timestamp;pressure;altitude;pressure_sealevel;temperature;humidity
57827;BME280;43656;57.746;11.780;2023-07-13T00:00:11;100531.03;;;18.43;100.00
57827;BME280;43656;57.746;11.780;2023-07-13T00:02:36;100537.00;;;18.40;100.00
57827;BME280;43656;57.746;11.780;2023-07-13T00:05:02;100530.16;;;18.37;100.00
57827;BME280;43656;57.746;11.780;2023-07-13T00:07:28;100529.34;;;18.37;100.00
57827;BME280;43656;57.746;11.780;2023-07-13T00:09:53;100527.44;;;18.37;100.00
57827;BME280;43656;57.746;11.780;2023-07-13T00:12:31;100528.78;;;18.35;100.00
57827;BME280;43656;57.746;11.780;2023-07-13T00:14:58;100535.31;;;18.34;100.00
57827;BME280;43656;57.746;11.780;2023-07-13T00:17:26;100531.22;;;18.31;100.00
57827;BME280;43656;57.746;11.780;2023-07-13T00:19:52;100527.91;;;18.29;100.00
57827;BME280;43656;57.746;11.780;2023-07-13T00:22:18;100526.78;;;18.25;100.00
57827;BME280;43656;57.746;11.780;2023-07-13T00:24:44;100529.25;;;18.26;100.00
57827;BME280;43656;57.746;11.780;2023-07-13T00:27:10;100531.16;;;18.26;100.00
57827;BME280;43656;57.746;11.780;2023-07-13T00:29:36;100525.69;;;18.26;100.00
57827;BME280;43656;57.746;11.780;2023-07-13T00:32:06;100524.88;;;18.25;100.00
57827;BME280;43656;57.746;11.780;2023-07-13T00:34:32;100534.38;;;18.23;100.00
57827;BME280;43656;57.746;11.780;2023-07-13T00:36:58;100534.38;;;18.23;100.00
57827;BME280;43656;57.746;11.780;2023-07-13T00:39:23;100523.69;;;18.16;100.00
57827;BME280;43656;57.746;11.780;2023-07-13T00:41:50;100536.78;;;18.19;100.00
57827;BME280;43656;57.746;11.780;2023-07-13T00:44:17;100528.00;;;18.12;100.00
57827;BME280;43656;57.746;11.780;2023-07-13T00:46:43;100531.06;;;18.21;100.00
57827;BME280;43656;57.746;11.780;2023-07-13T00:49:11;100531.78;;;18.11;100.00
57827;BME280;43656;57.746;11.780;2023-07-13T00:51:43;100535.16;;;18.18;100.00
57827;BME280;43656;57.746;11.780;2023-07-13T00:54:13;100517.31;;;18.05;100.00
57827;BME280;43656;57.746;11.780;2023-07-13T00:56:41;100534.59;;;18.16;100.00
57827;BME280;43656;57.746;11.780;2023-07-13T00:59:10;100507.75;;;18.03;100.00
57827;BME280;43656;57.746;11.780;2023-07-13T01:01:36;100532.13;;;18.15;100.00
57827;BME280;43656;57.746;11.780;2023-07-13T01:04:03;100525.00;;;18.14;100.00
57827;BME280;43656;57.746;11.780;2023-07-13T01:06:28;100528.03;;;18.17;100.00
57827;BME280;43656;57.746;11.780;2023-07-13T01:08:55;100535.66;;;18.15;100.00
57827;BME280;43656;57.746;11.780;2023-07-13T01:11:21;100530.16;;;18.10;100.00
57827;BME280;43656;57.746;11.780;2023-07-13T01:13:47;100531.03;;;18.16;100.00
57827;BME280;43656;57.746;11.780;2023-07-13T01:16:21;100514.31;;;18.07;100.00
57827;BME280;43656;57.746;11.780;2023-07-13T01:18:47;100535.19;;;18.23;100.00
57827;BME280;43656;57.746;11.780;2023-07-13T01:21:13;100522.66;;;18.22;100.00
57827;BME280;43656;57.746;11.780;2023-07-13T01:23:38;100525.44;;;18.27;100.00
57827;BME280;43656;57.746;11.780;2023-07-13T01:26:03;100526.56;;;18.31;100.00
57827;BME280;43656;57.746;11.780;2023-07-13T01:28:29;100513.41;;;18.23;100.00
57827;BME280;43656;57.746;11.780;2023-07-13T01:30:57;100525.56;;;18.38;100.00
57827;BME280;43656;57.746;11.780;2023-07-13T01:33:23;100530.44;;;18.36;100.00
57827;BME280;43656;57.746;11.780;2023-07-13T01:35:49;100526.09;;;18.40;100.00
57827;BME280;43656;57.746;11.780;2023-07-13T01:38:16;100525.00;;;18.41;100.00
57827;BME280;43656;57.746;11.780;2023-07-13T01:40:42;100532.63;;;18.39;100.00
57827;BME280;43656;57.746;11.780;2023-07-13T01:43:08;100534.34;;;18.45;100.00
57827;BME280;43656;57.746;11.780;2023-07-13T01:45:34;100512.47;;;18.40;100.00
57827;BME280;43656;57.746;11.780;2023-07-13T01:47:59;100537.16;;;18.55;100.00
57827;BME280;43656;57.746;11.780;2023-07-13T01:50:25;100537.69;;;18.57;100.00
57827;BME280;43656;57.746;11.780;2023-07-13T01:52:51;100536.06;;;18.56;100.00
57827;BME280;43656;57.746;11.780;2023-07-13T01:55:17;100536.94;;;18.62;100.00
57827;BME280;43656;57.746;11.780;2023-07-13T01:57:42;100533.41;;;18.61;100.00
57827;BME280;43656;57.746;11.780;2023-07-13T02:00:09;100532.81;;;18.59;100.00
57827;BME280;43656;57.746;11.780;2023-07-13T02:02:35;100534.72;;;18.59;100.00
57827;BME280;43656;57.746;11.780;2023-07-13T02:05:00;100522.63;;;18.44;100.00
57827;BME280;43656;57.746;11.780;2023-07-13T02:07:26;100540.94;;;18.54;100.00
57827;BME280;43656;57.746;11.780;2023-07-13T02:09:51;100549.19;;;18.59;100.00
57827;BME280;43656;57.746;11.780;2023-07-13T02:12:17;100538.56;;;18.58;100.00
57827;BME280;43656;57.746;11.780;2023-07-13T02:14:42;100534.97;;;18.57;100.00
57827;BME280;43656;57.746;11.780;2023-07-13T02:17:09;100533.34;;;18.56;100.00
57827;BME280;43656;57.746;11.780;2023-07-13T02:19:35;100524.56;;;18.49;100.00
57827;BME280;43656;57.746;11.780;2023-07-13T02:22:01;100537.66;;;18.52;100.00
57827;BME280;43656;57.746;11.780;2023-07-13T02:24:27;100517.38;;;18.38;100.00
57827;BME280;43656;57.746;11.780;2023-07-13T02:26:52;100552.38;;;18.51;100.00
57827;BME280;43656;57.746;11.780;2023-07-13T02:29:18;100550.72;;;18.50;100.00
57827;BME280;43656;57.746;11.780;2023-07-13T02:31:43;100549.31;;;18.47;100.00
57827;BME280;43656;57.746;11.780;2023-07-13T02:34:09;100546.28;;;18.44;100.00
57827;BME280;43656;57.746;11.780;2023-07-13T02:36:35;100551.44;;;18.40;100.00
57827;BME280;43656;57.746;11.780;2023-07-13T02:39:02;100548.72;;;18.40;100.00
57827;BME280;43656;57.746;11.780;2023-07-13T02:41:28;100542.97;;;18.37;100.00
57827;BME280;43656;57.746;11.780;2023-07-13T02:43:54;100548.16;;;18.38;100.00
57827;BME280;43656;57.746;11.780;2023-07-13T02:46:22;100549.81;;;18.39;100.00
57827;BME280;43656;57.746;11.780;2023-07-13T02:48:49;100550.63;;;18.40;100.00
57827;BME280;43656;57.746;11.780;2023-07-13T02:51:14;100544.94;;;18.41;100.00
57827;BME280;43656;57.746;11.780;2023-07-13T02:53:40;100551.19;;;18.42;100.00
57827;BME280;43656;57.746;11.780;2023-07-13T02:56:05;100540.00;;;18.38;100.00
57827;BME280;43656;57.746;11.780;2023-07-13T02:58:31;100544.03;;;18.36;100.00
57827;BME280;43656;57.746;11.780;2023-07-13T03:00:57;100520.81;;;18.28;100.00
57827;BME280;43656;57.746;11.780;2023-07-13T03:03:23;100546.00;;;18.40;100.00
57827;BME280;43656;57.746;11.780;2023-07-13T03:05:58;100546.00;;;18.40;100.00
57827;BME280;43656;57.746;11.780;2023-07-13T03:08:25;100534.84;;;18.42;100.00
57827;BME280;43656;57.746;11.780;2023-07-13T03:11:01;100534.53;;;18.70;100.00
57827;BME280;43656;57.746;11.780;2023-07-13T03:13:27;100535.44;;;18.76;100.00
57827;BME280;43656;57.746;11.780;2023-07-13T03:15:53;100534.34;;;18.77;100.00
57827;BME280;43656;57.746;11.780;2023-07-13T03:18:18;100536.41;;;18.92;100.00
57827;BME280;43656;57.746;11.780;2023-07-13T03:20:44;100542.00;;;19.12;100.00
57827;BME280;43656;57.746;11.780;2023-07-13T03:23:09;100538.72;;;19.58;100.00
57827;BME280;43656;57.746;11.780;2023-07-13T03:25:35;100543.03;;;20.01;100.00
57827;BME280;43656;57.746;11.780;2023-07-13T03:28:00;100544.47;;;20.34;99.56
57827;BME280;43656;57.746;11.780;2023-07-13T03:30:26;100530.75;;;20.09;100.00
57827;BME280;43656;57.746;11.780;2023-07-13T03:32:51;100545.34;;;20.50;98.92
57827;BME280;43656;57.746;11.780;2023-07-13T03:35:19;100547.22;;;20.45;98.95
57827;BME280;43656;57.746;11.780;2023-07-13T03:37:44;100546.38;;;20.29;100.00
57827;BME280;43656;57.746;11.780;2023-07-13T03:40:10;100528.84;;;20.04;100.00
57827;BME280;43656;57.746;11.780;2023-07-13T03:42:36;100543.25;;;19.84;100.00
57827;BME280;43656;57.746;11.780;2023-07-13T03:45:02;100537.09;;;19.62;100.00
57827;BME280;43656;57.746;11.780;2023-07-13T03:47:27;100541.69;;;19.51;100.00
57827;BME280;43656;57.746;11.780;2023-07-13T03:49:53;100546.28;;;19.45;100.00
57827;BME280;43656;57.746;11.780;2023-07-13T03:52:18;100509.09;;;19.24;100.00
57827;BME280;43656;57.746;11.780;2023-07-13T03:54:44;100543.56;;;19.40;100.00
57827;BME280;43656;57.746;11.780;2023-07-13T03:57:09;100537.25;;;19.35;100.00
57827;BME280;43656;57.746;11.780;2023-07-13T03:59:35;100530.34;;;19.22;100.00
57827;BME280;43656;57.746;11.780;2023-07-13T04:02:01;100540.38;;;19.16;100.00
57827;BME280;43656;57.746;11.780;2023-07-13T04:04:26;100538.22;;;19.18;100.00
57827;BME280;43656;57.746;11.780;2023-07-13T04:06:51;100541.19;;;19.17;100.00
57827;BME280;43656;57.746;11.780;2023-07-13T04:09:18;100540.44;;;19.21;100.00
57827;BME280;43656;57.746;11.780;2023-07-13T04:11:44;100538.25;;;19.23;100.00
57827;BME280;43656;57.746;11.780;2023-07-13T04:14:09;100531.38;;;19.16;100.00
57827;BME280;43656;57.746;11.780;2023-07-13T04:16:35;100527.25;;;19.13;100.00
57827;BME280;43656;57.746;11.780;2023-07-13T04:19:00;100542.59;;;19.19;100.00
57827;BME280;43656;57.746;11.780;2023-07-13T04:21:30;100528.88;;;19.09;100.00
57827;BME280;43656;57.746;11.780;2023-07-13T04:23:56;100525.06;;;19.10;100.00
57827;BME280;43656;57.746;11.780;2023-07-13T04:26:21;100533.34;;;19.20;100.00
57827;BME280;43656;57.746;11.780;2023-07-13T04:28:48;100529.47;;;19.16;100.00
57827;BME280;43656;57.746;11.780;2023-07-13T04:31:14;100545.66;;;19.28;100.00
57827;BME280;43656;57.746;11.780;2023-07-13T04:33:39;100518.09;;;19.24;100.00
57827;BME280;43656;57.746;11.780;2023-07-13T04:36:05;100549.53;;;19.37;100.00
57827;BME280;43656;57.746;11.780;2023-07-13T04:38:32;100543.56;;;19.40;100.00
57827;BME280;43656;57.746;11.780;2023-07-13T04:41:04;100540.81;;;19.40;100.00
57827;BME280;43656;57.746;11.780;2023-07-13T04:43:31;100546.03;;;19.47;100.00
57827;BME280;43656;57.746;11.780;2023-07-13T04:45:57;100545.50;;;19.50;100.00
57827;BME280;43656;57.746;11.780;2023-07-13T04:48:23;100530.81;;;19.61;100.00
57827;BME280;43656;57.746;11.780;2023-07-13T04:50:55;100535.41;;;20.18;100.00
57827;BME280;43656;57.746;11.780;2023-07-13T04:53:21;100543.34;;;21.58;93.36
57827;BME280;43656;57.746;11.780;2023-07-13T04:55:46;100548.66;;;21.03;95.26
57827;BME280;43656;57.746;11.780;2023-07-13T04:58:12;100541.38;;;21.74;92.57
57827;BME280;43656;57.746;11.780;2023-07-13T05:00:38;100547.41;;;22.36;88.45
57827;BME280;43656;57.746;11.780;2023-07-13T05:03:04;100543.31;;;22.28;88.14
57827;BME280;43656;57.746;11.780;2023-07-13T05:05:30;100554.28;;;22.72;86.09
57827;BME280;43656;57.746;11.780;2023-07-13T05:07:55;100554.59;;;22.21;88.32
57827;BME280;43656;57.746;11.780;2023-07-13T05:10:21;100545.72;;;21.85;90.87
57827;BME280;43656;57.746;11.780;2023-07-13T05:12:47;100552.50;;;21.98;90.02
57827;BME280;43656;57.746;11.780;2023-07-13T05:15:12;100551.19;;;21.90;90.59
57827;BME280;43656;57.746;11.780;2023-07-13T05:17:38;100539.97;;;21.87;89.88
57827;BME280;43656;57.746;11.780;2023-07-13T05:20:07;100544.72;;;21.55;91.53
57827;BME280;43656;57.746;11.780;2023-07-13T05:22:33;100539.84;;;21.27;92.78
57827;BME280;43656;57.746;11.780;2023-07-13T05:25:01;100561.47;;;21.18;93.79
57827;BME280;43656;57.746;11.780;2023-07-13T05:27:26;100559.31;;;21.10;94.02
57827;BME280;43656;57.746;11.780;2023-07-13T05:29:51;100552.75;;;20.96;94.40
57827;BME280;43656;57.746;11.780;2023-07-13T05:32:18;100560.63;;;21.48;92.56
57827;BME280;43656;57.746;11.780;2023-07-13T05:34:44;100556.09;;;21.93;90.98
57827;BME280;43656;57.746;11.780;2023-07-13T05:37:09;100562.66;;;21.97;90.98
57827;BME280;43656;57.746;11.780;2023-07-13T05:39:35;100564.47;;;22.67;87.91
57827;BME280;43656;57.746;11.780;2023-07-13T05:42:01;100564.22;;;22.63;88.07
57827;BME280;43656;57.746;11.780;2023-07-13T05:44:27;100564.84;;;22.50;88.44
57827;BME280;43656;57.746;11.780;2023-07-13T05:46:53;100559.03;;;22.07;89.23
57827;BME280;43656;57.746;11.780;2023-07-13T05:49:18;100565.28;;;22.23;88.67
57827;BME280;43656;57.746;11.780;2023-07-13T05:51:44;100564.94;;;22.35;88.01
57827;BME280;43656;57.746;11.780;2023-07-13T05:54:09;100568.00;;;22.28;87.86
57827;BME280;43656;57.746;11.780;2023-07-13T05:56:34;100554.63;;;22.11;88.26
57827;BME280;43656;57.746;11.780;2023-07-13T05:59:00;100556.91;;;21.94;88.59
57827;BME280;43656;57.746;11.780;2023-07-13T06:01:25;100568.72;;;21.84;89.07
57827;BME280;43656;57.746;11.780;2023-07-13T06:03:51;100560.25;;;21.75;90.01
57827;BME280;43656;57.746;11.780;2023-07-13T06:06:16;100558.94;;;21.68;90.59
57827;BME280;43656;57.746;11.780;2023-07-13T06:08:42;100554.00;;;21.70;90.77
57827;BME280;43656;57.746;11.780;2023-07-13T06:11:12;100551.50;;;21.78;91.02
57827;BME280;43656;57.746;11.780;2023-07-13T06:13:39;100558.41;;;21.61;91.65
57827;BME280;43656;57.746;11.780;2023-07-13T06:16:05;100564.19;;;21.59;91.45
57827;BME280;43656;57.746;11.780;2023-07-13T06:18:32;100573.22;;;21.54;92.19
57827;BME280;43656;57.746;11.780;2023-07-13T06:20:57;100571.56;;;21.53;92.35
57827;BME280;43656;57.746;11.780;2023-07-13T06:23:24;100569.41;;;21.50;92.59
57827;BME280;43656;57.746;11.780;2023-07-13T06:25:49;100571.88;;;21.42;93.46
57827;BME280;43656;57.746;11.780;2023-07-13T06:28:15;100569.97;;;21.37;93.05
57827;BME280;43656;57.746;11.780;2023-07-13T06:30:40;100561.22;;;21.35;92.90
57827;BME280;43656;57.746;11.780;2023-07-13T06:33:06;100563.66;;;21.26;93.41
57827;BME280;43656;57.746;11.780;2023-07-13T06:35:32;100566.41;;;21.21;93.88
57827;BME280;43656;57.746;11.780;2023-07-13T06:37:57;100568.88;;;21.18;94.14
57827;BME280;43656;57.746;11.780;2023-07-13T06:40:22;100567.22;;;21.22;93.73
57827;BME280;43656;57.746;11.780;2023-07-13T06:42:48;100568.03;;;21.22;93.88
57827;BME280;43656;57.746;11.780;2023-07-13T06:45:13;100571.88;;;21.21;93.85
57827;BME280;43656;57.746;11.780;2023-07-13T06:47:39;100571.91;;;21.16;93.49
57827;BME280;43656;57.746;11.780;2023-07-13T06:50:05;100574.09;;;21.19;93.38
57827;BME280;43656;57.746;11.780;2023-07-13T06:52:30;100543.16;;;20.98;93.43
57827;BME280;43656;57.746;11.780;2023-07-13T06:54:56;100557.66;;;21.04;92.58
57827;BME280;43656;57.746;11.780;2023-07-13T06:57:21;100562.88;;;21.00;91.87
57827;BME280;43656;57.746;11.780;2023-07-13T06:59:46;100580.13;;;21.06;91.50
57827;BME280;43656;57.746;11.780;2023-07-13T07:02:12;100572.97;;;21.05;90.64
57827;BME280;43656;57.746;11.780;2023-07-13T07:04:37;100588.56;;;21.25;90.28
57827;BME280;43656;57.746;11.780;2023-07-13T07:07:03;100576.81;;;21.34;89.94
57827;BME280;43656;57.746;11.780;2023-07-13T07:09:29;100574.88;;;21.50;89.49
57827;BME280;43656;57.746;11.780;2023-07-13T07:11:56;100590.69;;;21.69;88.22
57827;BME280;43656;57.746;11.780;2023-07-13T07:14:22;100577.88;;;21.59;86.91
57827;BME280;43656;57.746;11.780;2023-07-13T07:16:47;100595.91;;;21.70;86.23
57827;BME280;43656;57.746;11.780;2023-07-13T07:19:13;100581.91;;;21.72;85.27
57827;BME280;43656;57.746;11.780;2023-07-13T07:21:38;100594.47;;;21.88;84.93
57827;BME280;43656;57.746;11.780;2023-07-13T07:24:04;100597.41;;;22.07;84.42
57827;BME280;43656;57.746;11.780;2023-07-13T07:26:31;100599.25;;;22.27;83.83
57827;BME280;43656;57.746;11.780;2023-07-13T07:28:56;100592.91;;;22.37;82.69
57827;BME280;43656;57.746;11.780;2023-07-13T07:31:22;100600.50;;;22.45;83.08
57827;BME280;43656;57.746;11.780;2023-07-13T07:33:47;100590.47;;;22.25;81.38
57827;BME280;43656;57.746;11.780;2023-07-13T07:36:15;100605.22;;;22.39;81.55
57827;BME280;43656;57.746;11.780;2023-07-13T07:38:41;100601.31;;;22.50;80.88
57827;BME280;43656;57.746;11.780;2023-07-13T07:41:06;100596.69;;;22.46;80.91
57827;BME280;43656;57.746;11.780;2023-07-13T07:43:32;100594.69;;;22.62;80.57
57827;BME280;43656;57.746;11.780;2023-07-13T07:45:57;100599.56;;;22.65;80.91
57827;BME280;43656;57.746;11.780;2023-07-13T07:48:23;100603.34;;;22.74;80.15
57827;BME280;43656;57.746;11.780;2023-07-13T07:50:48;100604.38;;;22.83;79.61
57827;BME280;43656;57.746;11.780;2023-07-13T07:53:14;100594.38;;;23.03;78.52
57827;BME280;43656;57.746;11.780;2023-07-13T07:55:39;100606.63;;;23.15;79.00
57827;BME280;43656;57.746;11.780;2023-07-13T07:58:05;100601.50;;;23.38;78.28
57827;BME280;43656;57.746;11.780;2023-07-13T08:00:31;100601.66;;;23.17;77.55
57827;BME280;43656;57.746;11.780;2023-07-13T08:02:58;100602.66;;;22.97;77.42
57827;BME280;43656;57.746;11.780;2023-07-13T08:05:24;100599.44;;;22.85;78.48
57827;BME280;43656;57.746;11.780;2023-07-13T08:07:50;100615.78;;;23.06;77.60
57827;BME280;43656;57.746;11.780;2023-07-13T08:10:15;100592.34;;;23.18;77.31
57827;BME280;43656;57.746;11.780;2023-07-13T08:12:41;100610.28;;;23.06;76.71
57827;BME280;43656;57.746;11.780;2023-07-13T08:15:10;100613.97;;;23.25;76.86
57827;BME280;43656;57.746;11.780;2023-07-13T08:17:36;100605.38;;;23.32;76.93
57827;BME280;43656;57.746;11.780;2023-07-13T08:20:02;100605.22;;;23.47;75.93
57827;BME280;43656;57.746;11.780;2023-07-13T08:22:27;100613.97;;;23.25;76.56
57827;BME280;43656;57.746;11.780;2023-07-13T08:24:53;100619.34;;;23.01;76.41
57827;BME280;43656;57.746;11.780;2023-07-13T08:27:23;100624.09;;;22.90;76.61
57827;BME280;43656;57.746;11.780;2023-07-13T08:29:49;100620.38;;;22.71;77.84
57827;BME280;43656;57.746;11.780;2023-07-13T08:32:15;100620.81;;;22.93;78.03
57827;BME280;43656;57.746;11.780;2023-07-13T08:34:40;100614.25;;;22.84;77.21
57827;BME280;43656;57.746;11.780;2023-07-13T08:37:06;100617.78;;;22.90;75.91
57827;BME280;43656;57.746;11.780;2023-07-13T08:39:32;100609.88;;;22.83;76.53
57827;BME280;43656;57.746;11.780;2023-07-13T08:47:31;100633.69;;;22.48;78.63
57827;BME280;43656;57.746;11.780;2023-07-13T08:49:59;100628.06;;;22.14;79.13
57827;BME280;43656;57.746;11.780;2023-07-13T08:52:29;100640.91;;;22.29;79.30
57827;BME280;43656;57.746;11.780;2023-07-13T08:54:57;100626.72;;;22.17;79.80
57827;BME280;43656;57.746;11.780;2023-07-13T08:57:32;100635.81;;;21.92;79.44
57827;BME280;43656;57.746;11.780;2023-07-13T08:59:58;100624.84;;;22.02;79.19
57827;BME280;43656;57.746;11.780;2023-07-13T09:02:45;100638.25;;;22.03;79.43
57827;BME280;43656;57.746;11.780;2023-07-13T09:10:25;100620.81;;;22.44;78.68
57827;BME280;43656;57.746;11.780;2023-07-13T09:13:06;100633.50;;;22.79;78.40
57827;BME280;43656;57.746;11.780;2023-07-13T09:15:38;100632.31;;;22.90;77.09
57827;BME280;43656;57.746;11.780;2023-07-13T09:20:53;100624.63;;;22.53;77.54
57827;BME280;43656;57.746;11.780;2023-07-13T09:23:23;100639.31;;;22.67;76.63
57827;BME280;43656;57.746;11.780;2023-07-13T09:25:53;100631.97;;;22.58;77.24
57827;BME280;43656;57.746;11.780;2023-07-13T09:28:29;100641.31;;;22.57;77.13
57827;BME280;43656;57.746;11.780;2023-07-13T09:31:09;100638.13;;;22.34;76.58
57827;BME280;43656;57.746;11.780;2023-07-13T09:33:38;100646.56;;;22.53;76.05
57827;BME280;43656;57.746;11.780;2023-07-13T09:36:22;100644.16;;;22.36;77.18
57827;BME280;43656;57.746;11.780;2023-07-13T09:38:57;100652.84;;;22.59;77.53
57827;BME280;43656;57.746;11.780;2023-07-13T09:41:33;100642.69;;;22.59;77.35
57827;BME280;43656;57.746;11.780;2023-07-13T09:44:14;100645.59;;;22.73;76.95
57827;BME280;43656;57.746;11.780;2023-07-13T09:46:52;100642.25;;;22.81;77.58
57827;BME280;43656;57.746;11.780;2023-07-13T09:49:22;100649.03;;;22.99;77.43
57827;BME280;43656;57.746;11.780;2023-07-13T09:51:58;100645.81;;;23.21;76.27
57827;BME280;43656;57.746;11.780;2023-07-13T09:54:24;100637.59;;;23.50;75.46
57827;BME280;43656;57.746;11.780;2023-07-13T09:57:00;100649.84;;;23.63;74.81
57827;BME280;43656;57.746;11.780;2023-07-13T09:59:31;100628.44;;;23.60;74.95
57827;BME280;43656;57.746;11.780;2023-07-13T10:01:56;100648.94;;;23.97;73.86
57827;BME280;43656;57.746;11.780;2023-07-13T10:04:31;100636.38;;;23.90;72.91
57827;BME280;43656;57.746;11.780;2023-07-13T10:07:08;100654.63;;;24.05;72.25
57827;BME280;43656;57.746;11.780;2023-07-13T10:09:33;100663.75;;;24.01;71.59
57827;BME280;43656;57.746;11.780;2023-07-13T10:11:59;100652.09;;;24.09;70.71
57827;BME280;43656;57.746;11.780;2023-07-13T10:14:25;100639.53;;;23.79;71.35
57827;BME280;43656;57.746;11.780;2023-07-13T10:16:58;100647.38;;;23.90;71.95
57827;BME280;43656;57.746;11.780;2023-07-13T10:19:27;100647.31;;;23.72;71.50
57827;BME280;43656;57.746;11.780;2023-07-13T10:21:54;100652.06;;;23.61;72.93
57827;BME280;43656;57.746;11.780;2023-07-13T10:24:36;100651.53;;;23.59;72.32
57827;BME280;43656;57.746;11.780;2023-07-13T10:27:16;100648.78;;;23.59;72.66
57827;BME280;43656;57.746;11.780;2023-07-13T10:29:46;100652.81;;;23.66;73.30
57827;BME280;43656;57.746;11.780;2023-07-13T10:32:13;100641.75;;;23.77;73.54
57827;BME280;43656;57.746;11.780;2023-07-13T10:34:42;100650.41;;;24.13;73.42
57827;BME280;43656;57.746;11.780;2023-07-13T10:37:18;100635.22;;;23.97;73.16
57827;BME280;43656;57.746;11.780;2023-07-13T10:39:46;100647.19;;;24.06;74.22
57827;BME280;43656;57.746;11.780;2023-07-13T10:42:15;100632.88;;;24.09;74.86
57827;BME280;43656;57.746;11.780;2023-07-13T10:44:43;100643.31;;;24.31;74.69
57827;BME280;43656;57.746;11.780;2023-07-13T10:47:16;100634.91;;;24.22;75.74
57827;BME280;43656;57.746;11.780;2023-07-13T10:49:43;100645.66;;;24.19;75.66
57827;BME280;43656;57.746;11.780;2023-07-13T10:53:02;100637.69;;;24.17;75.13
57827;BME280;43656;57.746;11.780;2023-07-13T10:55:40;100641.00;;;24.19;75.15
57827;BME280;43656;57.746;11.780;2023-07-13T10:58:28;100642.66;;;24.39;75.09
57827;BME280;43656;57.746;11.780;2023-07-13T11:03:50;100650.41;;;23.89;74.49
57827;BME280;43656;57.746;11.780;2023-07-13T11:09:24;100657.66;;;24.04;74.92
57827;BME280;43656;57.746;11.780;2023-07-13T11:11:59;100627.78;;;23.97;74.93
57827;BME280;43656;57.746;11.780;2023-07-13T11:14:26;100674.22;;;23.99;74.85
57827;BME280;43656;57.746;11.780;2023-07-13T11:16:52;100665.97;;;23.75;73.47
57827;BME280;43656;57.746;11.780;2023-07-13T11:22:03;100673.78;;;23.86;70.10
57827;BME280;43656;57.746;11.780;2023-07-13T11:24:53;100665.16;;;24.22;67.96
57827;BME280;43656;57.746;11.780;2023-07-13T11:27:42;100663.81;;;24.63;67.16
57827;BME280;43656;57.746;11.780;2023-07-13T11:30:35;100664.19;;;24.75;66.54
57827;BME280;43656;57.746;11.780;2023-07-13T11:33:11;100674.81;;;24.63;66.00
57827;BME280;43656;57.746;11.780;2023-07-13T11:38:42;100681.31;;;24.05;64.77
57827;BME280;43656;57.746;11.780;2023-07-13T11:43:40;100669.97;;;24.30;65.91
57827;BME280;43656;57.746;11.780;2023-07-13T11:46:30;100662.94;;;24.24;65.24
57827;BME280;43656;57.746;11.780;2023-07-13T11:48:56;100679.84;;;24.12;65.71
57827;BME280;43656;57.746;11.780;2023-07-13T11:51:28;100680.59;;;24.18;66.55
57827;BME280;43656;57.746;11.780;2023-07-13T11:53:55;100684.56;;;24.07;67.98
57827;BME280;43656;57.746;11.780;2023-07-13T11:56:22;100687.25;;;24.12;67.93
57827;BME280;43656;57.746;11.780;2023-07-13T11:58:54;100687.97;;;23.99;68.36
57827;BME280;43656;57.746;11.780;2023-07-13T12:01:22;100693.31;;;24.14;68.89
57827;BME280;43656;57.746;11.780;2023-07-13T12:03:50;100684.06;;;24.05;69.07
57827;BME280;43656;57.746;11.780;2023-07-13T12:06:27;100686.00;;;24.04;68.02
57827;BME280;43656;57.746;11.780;2023-07-13T12:08:59;100683.47;;;24.08;68.06
57827;BME280;43656;57.746;11.780;2023-07-13T12:11:25;100688.31;;;24.16;67.10
57827;BME280;43656;57.746;11.780;2023-07-13T12:13:50;100683.63;;;24.17;65.64
57827;BME280;43656;57.746;11.780;2023-07-13T12:16:31;100688.88;;;24.13;64.79
57827;BME280;43656;57.746;11.780;2023-07-13T12:18:59;100696.63;;;24.11;64.46
57827;BME280;43656;57.746;11.780;2023-07-13T12:21:38;100691.34;;;23.90;65.42
57827;BME280;43656;57.746;11.780;2023-07-13T12:24:14;100702.81;;;23.98;65.16
57827;BME280;43656;57.746;11.780;2023-07-13T12:26:40;100693.59;;;23.83;64.45
57827;BME280;43656;57.746;11.780;2023-07-13T12:29:07;100702.72;;;24.08;63.90
57827;BME280;43656;57.746;11.780;2023-07-13T12:31:44;100715.09;;;24.29;63.23
57827;BME280;43656;57.746;11.780;2023-07-13T12:34:18;100708.09;;;24.18;62.16
57827;BME280;43656;57.746;11.780;2023-07-13T12:36:49;100701.44;;;24.24;62.40
57827;BME280;43656;57.746;11.780;2023-07-13T12:39:19;100699.06;;;24.36;62.35
57827;BME280;43656;57.746;11.780;2023-07-13T12:41:46;100698.69;;;24.24;62.29
57827;BME280;43656;57.746;11.780;2023-07-13T12:44:15;100657.03;;;24.12;63.75
57827;BME280;43656;57.746;11.780;2023-07-13T12:46:52;100700.94;;;24.65;63.59
57827;BME280;43656;57.746;11.780;2023-07-13T12:49:23;100697.19;;;24.32;62.95
57827;BME280;43656;57.746;11.780;2023-07-13T12:51:50;100702.69;;;24.32;63.85
57827;BME280;43656;57.746;11.780;2023-07-13T12:54:20;100686.31;;;24.22;63.94
57827;BME280;43656;57.746;11.780;2023-07-13T12:56:49;100707.50;;;24.45;64.58
57827;BME280;43656;57.746;11.780;2023-07-13T12:59:20;100703.94;;;24.45;64.81
57827;BME280;43656;57.746;11.780;2023-07-13T13:01:46;100715.75;;;24.45;65.41
57827;BME280;43656;57.746;11.780;2023-07-13T13:04:15;100705.34;;;24.42;66.07
57827;BME280;43656;57.746;11.780;2023-07-13T13:06:41;100705.81;;;24.25;66.21